Terminal Aerodrome Forecast
Issued by NWS

Home | Current Version | Previous Version | Graphics & Text | Print | Product List | Glossary On
Versions: 1 2 3 4 5 6 7 8 9 10 11 12 13 14 15 16 17 18
435
FTUS43 KICT 261720
TAFSLN
TAF
KSLN 261720Z 2618/2718 11008KT P6SM SCT025 BKN040
      TEMPO 2618/2620 BKN025
     FM270000 10005KT P6SM SCT250
     FM271200 14004KT P6SM SCT070
     FM271500 16007KT P6SM BKN130=

USA.gov is the U.S. government's official web portal to all federal, state and local government web resources and services.